Time;durP1;ratioP1;P1;durP2;ratioP2;P2;SDS_P1;SDS_P2;PMS_P1;PMS_P2;Temp;Humidity;BMP_temperature;BMP_pressure;BME280_temperature;BME280_humidity;BME280_pressure;Samples;Min_cycle;Max_cycle;Signal;HPM_P1;HPM_P2
2023/01/31 00:00:08;;;;;;;21.90;15.70;;;;;;;-0.79;100.00;98409.47;110328;1270;22254;-67
2023/01/31 00:02:37;;;;;;;24.10;16.30;;;;;;;-0.75;100.00;98409.84;110426;1275;22188;-66
2023/01/31 00:05:05;;;;;;;23.90;15.40;;;;;;;-0.75;100.00;98410.23;110379;1275;22448;-66
2023/01/31 00:07:34;;;;;;;24.00;16.40;;;;;;;-0.76;100.00;98405.50;110371;1275;23177;-67
2023/01/31 00:10:02;;;;;;;25.60;15.90;;;;;;;-0.74;100.00;98397.61;110379;1272;22201;-67
2023/01/31 00:12:31;;;;;;;23.20;15.90;;;;;;;-0.72;100.00;98401.25;110378;1269;23159;-66
2023/01/31 00:14:59;;;;;;;21.00;13.60;;;;;;;-0.75;100.00;98399.73;110410;1275;22300;-66
2023/01/31 00:17:28;;;;;;;23.60;16.20;;;;;;;-0.77;100.00;98408.19;110371;1270;23213;-66
2023/01/31 00:19:56;;;;;;;21.40;14.80;;;;;;;-0.72;100.00;98414.08;110381;1272;22224;-67
2023/01/31 00:22:25;;;;;;;21.10;14.70;;;;;;;-0.67;100.00;98407.79;110378;1272;22202;-66
2023/01/31 00:24:53;;;;;;;23.00;15.70;;;;;;;-0.69;100.00;98411.05;110368;1269;22438;-67
2023/01/31 00:27:21;;;;;;;24.80;16.30;;;;;;;-0.72;100.00;98415.52;110403;1275;22833;-66
2023/01/31 00:29:49;;;;;;;21.50;15.50;;;;;;;-0.68;100.00;98413.63;110388;1275;22720;-66
2023/01/31 00:32:17;;;;;;;20.80;14.20;;;;;;;-0.65;100.00;98411.35;110391;1271;22413;-67
2023/01/31 00:34:48;;;;;;;22.80;15.70;;;;;;;-0.67;100.00;98407.35;109902;1275;22543;-66
2023/01/31 00:37:16;;;;;;;21.90;15.40;;;;;;;-0.72;100.00;98407.61;107524;1276;22526;-65
2023/01/31 00:39:45;;;;;;;21.40;15.00;;;;;;;-0.68;100.00;98411.60;107691;1268;25355;-65
2023/01/31 00:42:13;;;;;;;22.90;15.50;;;;;;;-0.65;100.00;98410.17;107587;1274;22533;-66
2023/01/31 00:44:41;;;;;;;24.30;16.60;;;;;;;-0.68;100.00;98412.08;107590;1273;25379;-65
2023/01/31 00:47:09;;;;;;;23.10;15.10;;;;;;;-0.72;100.00;98418.35;107630;1275;22577;-65
2023/01/31 00:49:38;;;;;;;23.40;14.90;;;;;;;-0.70;100.00;98423.33;107604;1275;22535;-66
2023/01/31 00:52:06;;;;;;;21.10;14.40;;;;;;;-0.68;100.00;98424.55;107786;1268;23376;-66
2023/01/31 00:54:34;;;;;;;24.40;14.90;;;;;;;-0.77;100.00;98420.57;107748;1269;23254;-65
2023/01/31 00:57:02;;;;;;;21.90;15.20;;;;;;;-0.83;100.00;98421.78;107738;1275;25957;-67
2023/01/31 00:59:31;;;;;;;22.60;15.20;;;;;;;-0.80;100.00;98420.57;107614;1274;25060;-66
2023/01/31 01:02:00;;;;;;;20.30;14.40;;;;;;;-0.76;100.00;98417.67;107687;1274;26246;-66
2023/01/31 01:04:29;;;;;;;20.50;14.30;;;;;;;-0.74;100.00;98414.63;107771;1274;25392;-66
2023/01/31 01:07:01;;;;;;;20.80;14.50;;;;;;;-0.76;100.00;98412.95;107765;1269;25442;-65
2023/01/31 01:09:30;;;;;;;21.10;14.70;;;;;;;-0.75;100.00;98411.27;107758;1274;24369;-66
2023/01/31 01:11:59;;;;;;;22.80;14.50;;;;;;;-0.69;100.00;98415.74;110387;1269;23174;-67
2023/01/31 01:14:27;;;;;;;22.70;14.70;;;;;;;-0.65;100.00;98409.27;110460;1269;22441;-66
2023/01/31 01:16:57;;;;;;;21.00;14.40;;;;;;;-0.66;100.00;98407.48;110500;1274;22193;-66
2023/01/31 01:19:27;;;;;;;26.10;15.50;;;;;;;-0.68;100.00;98405.30;110495;1269;22210;-66
2023/01/31 01:21:55;;;;;;;19.20;13.70;;;;;;;-0.66;100.00;98409.02;110470;1274;22268;-66
2023/01/31 01:24:24;;;;;;;21.70;14.10;;;;;;;-0.65;100.00;98410.17;110387;1274;22225;-66
2023/01/31 01:26:52;;;;;;;19.20;13.70;;;;;;;-0.66;100.00;98409.73;110434;1269;22508;-67
2023/01/31 01:29:20;;;;;;;19.10;13.50;;;;;;;-0.66;100.00;98413.84;110460;1274;23437;-65
2023/01/31 01:31:49;;;;;;;18.30;13.10;;;;;;;-0.70;100.00;98417.90;110432;1274;22207;-66
2023/01/31 01:34:18;;;;;;;18.10;12.90;;;;;;;-0.73;100.00;98418.70;110456;1266;22493;-66
2023/01/31 01:36:49;;;;;;;20.30;13.90;;;;;;;-0.68;100.00;98418.77;110457;1272;22380;-66
2023/01/31 01:39:17;;;;;;;20.20;14.50;;;;;;;-0.62;100.00;98419.66;109464;1274;22695;-66
2023/01/31 01:41:45;;;;;;;20.20;14.70;;;;;;;-0.61;100.00;98421.50;107843;1274;22627;-66
2023/01/31 01:44:48;;;;;;;21.70;14.40;;;;;;;-0.66;100.00;98413.70;107777;1274;22566;-67
2023/01/31 01:47:26;;;;;;;20.40;13.40;;;;;;;-0.59;100.00;98414.16;107885;1274;25485;-66
2023/01/31 01:50:10;;;;;;;19.90;13.40;;;;;;;-0.56;100.00;98413.42;110394;1274;23000;-67
2023/01/31 01:52:49;;;;;;;20.70;14.40;;;;;;;-0.52;100.00;98419.41;110407;1274;22312;-67
2023/01/31 01:55:36;;;;;;;20.80;14.60;;;;;;;-0.56;100.00;98418.48;110468;1274;22353;-67
2023/01/31 01:58:13;;;;;;;22.90;14.80;;;;;;;-0.59;100.00;98418.33;110211;1272;22409;-66
2023/01/31 02:00:43;;;;;;;19.80;13.70;;;;;;;-0.53;100.00;98416.71;109654;1270;22532;-66
2023/01/31 02:03:12;;;;;;;19.80;14.10;;;;;;;-0.48;100.00;98414.11;107426;1275;25159;-66
2023/01/31 02:05:46;;;;;;;19.70;13.70;;;;;;;-0.48;100.00;98414.48;107598;1272;23763;-66
2023/01/31 02:08:17;;;;;;;22.20;14.50;;;;;;;-0.55;100.00;98418.23;107676;1268;25370;-66
2023/01/31 02:10:51;;;;;;;19.90;13.80;;;;;;;-0.54;100.00;98419.06;107624;1269;23359;-66
2023/01/31 02:13:19;;;;;;;20.90;14.70;;;;;;;-0.48;100.00;98420.90;107736;1275;25074;-66
2023/01/31 02:15:49;;;;;;;18.00;13.50;;;;;;;-0.50;100.00;98426.30;107584;1275;25441;-65
2023/01/31 02:18:19;;;;;;;20.90;14.00;;;;;;;-0.53;100.00;98425.10;107751;1269;22520;-66
2023/01/31 02:21:25;;;;;;;19.00;13.80;;;;;;;-0.52;100.00;98421.48;107469;1275;22535;-66
2023/01/31 02:24:13;;;;;;;20.90;15.00;;;;;;;-0.45;100.00;98422.23;110384;1272;22930;-65
2023/01/31 02:27:13;;;;;;;21.90;14.20;;;;;;;-0.49;100.00;98424.02;110365;1270;22351;-67
2023/01/31 02:30:03;;;;;;;19.20;14.00;;;;;;;-0.45;100.00;98424.10;110341;1276;22510;-67
2023/01/31 02:32:38;;;;;;;20.00;14.00;;;;;;;-0.39;100.00;98432.38;110404;1275;22507;-66
2023/01/31 02:35:23;;;;;;;21.00;14.40;;;;;;;-0.39;100.00;98430.19;110424;1275;23227;-66
2023/01/31 02:38:10;;;;;;;20.30;13.90;;;;;;;-0.42;100.00;98430.16;110161;1274;22331;-67
2023/01/31 02:40:47;;;;;;;20.40;14.20;;;;;;;-0.40;100.00;98431.92;110317;1275;22463;-67
2023/01/31 02:43:24;;;;;;;20.60;14.70;;;;;;;-0.36;100.00;98435.81;110182;1275;22613;-67
2023/01/31 02:46:03;;;;;;;19.50;13.70;;;;;;;-0.38;100.00;98436.79;110366;1270;22841;-67
2023/01/31 02:49:05;;;;;;;20.70;14.60;;;;;;;-0.43;100.00;98439.02;110183;1275;22225;-67
2023/01/31 02:51:37;;;;;;;20.90;14.30;;;;;;;-0.44;100.00;98441.67;110341;1275;22349;-67
2023/01/31 02:54:15;;;;;;;20.70;13.60;;;;;;;-0.41;100.00;98445.86;110171;1275;22400;-67
2023/01/31 02:56:43;;;;;;;23.70;14.70;;;;;;;-0.39;100.00;98446.60;110197;1276;22210;-66
2023/01/31 02:59:21;;;;;;;22.10;15.30;;;;;;;-0.41;100.00;98443.64;110369;1272;22988;-67
2023/01/31 03:01:57;;;;;;;20.40;13.90;;;;;;;-0.45;100.00;98443.67;110153;1275;22376;-67
2023/01/31 03:04:31;;;;;;;21.20;14.20;;;;;;;-0.41;100.00;98442.70;109891;1275;23366;-66
2023/01/31 03:07:25;;;;;;;19.30;14.50;;;;;;;-0.39;100.00;98447.66;107544;1275;25499;-66
2023/01/31 03:10:20;;;;;;;20.60;14.30;;;;;;;-0.37;100.00;98444.45;107594;1275;24279;-66
2023/01/31 03:12:49;;;;;;;22.00;15.50;;;;;;;-0.43;100.00;98451.05;107650;1275;26357;-66
2023/01/31 03:17:30;;;;;;;21.80;14.70;;;;;;;-0.48;100.00;98451.20;107517;1275;23400;-66
2023/01/31 03:18:17;;;;;;;23.00;15.70;;;;;;;-0.41;100.00;98442.86;107490;1275;24400;-67
2023/01/31 03:20:54;;;;;;;20.70;14.40;;;;;;;-0.36;100.00;98452.82;107785;1275;24436;-67
2023/01/31 03:23:28;;;;;;;21.40;15.50;;;;;;;-0.40;100.00;98457.16;107647;1275;23814;-67
2023/01/31 03:25:57;;;;;;;24.50;16.50;;;;;;;-0.48;100.00;98461.57;107691;1275;25330;-66
2023/01/31 03:28:28;;;;;;;21.10;15.40;;;;;;;-0.48;100.00;98460.71;107545;1275;22573;-67
2023/01/31 03:31:07;;;;;;;21.00;15.50;;;;;;;-0.44;100.00;98463.11;110368;1274;22274;-67
2023/01/31 03:33:44;;;;;;;22.90;15.90;;;;;;;-0.47;100.00;98459.35;110347;1275;22300;-66
2023/01/31 03:36:22;;;;;;;21.90;16.10;;;;;;;-0.54;100.00;98456.20;110189;1271;22268;-68
2023/01/31 03:39:12;;;;;;;22.20;15.20;;;;;;;-0.49;100.00;98458.67;110373;1275;22410;-67
2023/01/31 03:41:56;;;;;;;24.40;16.10;;;;;;;-0.46;100.00;98459.48;110217;1269;22976;-67
2023/01/31 03:45:03;;;;;;;22.60;15.70;;;;;;;-0.52;100.00;98461.70;110235;1274;22389;-68
2023/01/31 03:47:37;;;;;;;20.20;14.50;;;;;;;-0.54;100.00;98463.73;110416;1275;23034;-68
2023/01/31 03:50:15;;;;;;;19.60;14.20;;;;;;;-0.52;100.00;98460.11;110375;1272;22716;-67
2023/01/31 03:52:47;;;;;;;21.20;14.90;;;;;;;-0.46;100.00;98464.98;110361;1275;22473;-67
2023/01/31 03:55:20;;;;;;;20.80;14.70;;;;;;;-0.51;100.00;98463.02;110135;1274;22222;-68
2023/01/31 03:57:51;;;;;;;22.40;15.70;;;;;;;-0.53;100.00;98460.29;110184;1275;22303;-67
2023/01/31 04:00:21;;;;;;;20.40;15.30;;;;;;;-0.55;100.00;98461.73;110408;1275;22419;-66
2023/01/31 04:03:10;;;;;;;20.70;14.50;;;;;;;-0.51;100.00;98464.51;110155;1275;22204;-68
2023/01/31 04:05:39;;;;;;;20.80;15.10;;;;;;;-0.45;100.00;98467.31;108911;1270;22517;-67
2023/01/31 04:08:10;;;;;;;21.40;14.80;;;;;;;-0.45;100.00;98466.98;107314;1275;24203;-66
2023/01/31 04:10:40;;;;;;;21.20;14.80;;;;;;;-0.47;100.00;98465.92;107558;1275;25353;-67
2023/01/31 04:13:08;;;;;;;20.00;14.90;;;;;;;-0.50;100.00;98466.13;107831;1269;25376;-66
2023/01/31 04:15:37;;;;;;;21.90;14.90;;;;;;;-0.54;100.00;98470.07;107754;1271;23360;-67
2023/01/31 04:18:05;;;;;;;20.30;14.90;;;;;;;-0.51;100.00;98471.81;107713;1275;22788;-67
2023/01/31 04:20:33;;;;;;;20.00;14.60;;;;;;;-0.46;100.00;98471.08;110364;1275;22981;-68
2023/01/31 04:23:02;;;;;;;22.20;15.50;;;;;;;-0.39;100.00;98475.15;110403;1275;22447;-68
2023/01/31 04:25:30;;;;;;;21.30;15.20;;;;;;;-0.41;100.00;98480.20;110405;1275;22852;-67
2023/01/31 04:28:00;;;;;;;22.00;14.90;;;;;;;-0.45;100.00;98483.35;110425;1275;22353;-67
2023/01/31 04:30:28;;;;;;;21.40;14.30;;;;;;;-0.45;100.00;98488.70;110383;1275;22221;-68
2023/01/31 04:32:57;;;;;;;19.60;14.70;;;;;;;-0.43;100.00;98489.13;110431;1275;22423;-67
2023/01/31 04:35:25;;;;;;;18.90;14.30;;;;;;;-0.43;100.00;98492.97;110397;1275;22449;-67
2023/01/31 04:37:53;;;;;;;21.60;15.60;;;;;;;-0.48;100.00;98490.77;110402;1275;22416;-67
2023/01/31 04:40:25;;;;;;;19.80;14.10;;;;;;;-0.51;100.00;98487.98;110332;1275;22905;-67
2023/01/31 04:42:53;;;;;;;21.70;15.50;;;;;;;-0.51;100.00;98485.85;110431;1275;22356;-67
2023/01/31 04:45:21;;;;;;;22.70;14.50;;;;;;;-0.48;100.00;98484.83;110386;1272;22210;-67
2023/01/31 04:47:51;;;;;;;22.00;15.00;;;;;;;-0.45;100.00;98488.66;110409;1273;22860;-68
2023/01/31 04:50:20;;;;;;;19.90;14.80;;;;;;;-0.46;100.00;98490.48;110375;1271;22402;-67
2023/01/31 04:52:49;;;;;;;21.10;15.10;;;;;;;-0.47;100.00;98489.73;110411;1272;22428;-67
2023/01/31 04:55:18;;;;;;;23.30;15.90;;;;;;;-0.51;100.00;98492.95;110412;1275;22463;-67
2023/01/31 04:57:47;;;;;;;21.30;15.10;;;;;;;-0.45;100.00;98498.95;110408;1268;22197;-67
2023/01/31 05:00:16;;;;;;;19.60;15.40;;;;;;;-0.37;100.00;98502.10;110406;1274;22332;-67
2023/01/31 05:02:44;;;;;;;21.50;14.80;;;;;;;-0.34;100.00;98509.16;110480;1274;22472;-68
2023/01/31 05:05:12;;;;;;;23.90;15.30;;;;;;;-0.34;100.00;98505.84;110429;1274;22792;-67
2023/01/31 05:07:43;;;;;;;22.60;15.30;;;;;;;-0.33;100.00;98508.77;110406;1275;22803;-67
2023/01/31 05:10:11;;;;;;;22.60;16.40;;;;;;;-0.29;100.00;98512.50;110425;1266;22388;-66
2023/01/31 05:12:40;;;;;;;20.40;14.90;;;;;;;-0.30;100.00;98510.09;110475;1274;23436;-68
2023/01/31 05:15:10;;;;;;;21.10;15.00;;;;;;;-0.33;100.00;98508.29;110452;1274;22195;-67
2023/01/31 05:17:40;;;;;;;20.60;14.90;;;;;;;-0.42;100.00;98510.70;110467;1274;22212;-67
2023/01/31 05:20:09;;;;;;;21.10;15.50;;;;;;;-0.48;100.00;98515.57;110449;1273;23086;-67
2023/01/31 05:22:38;;;;;;;19.20;15.00;;;;;;;-0.45;100.00;98513.42;110418;1274;23088;-67
2023/01/31 05:25:07;;;;;;;20.90;14.60;;;;;;;-0.41;100.00;98517.07;110484;1274;22867;-68
2023/01/31 05:27:36;;;;;;;22.00;15.00;;;;;;;-0.38;100.00;98521.95;110477;1273;22408;-66
2023/01/31 05:30:05;;;;;;;21.20;16.00;;;;;;;-0.42;100.00;98522.25;107951;1274;25294;-67
2023/01/31 05:32:36;;;;;;;23.40;16.70;;;;;;;-0.46;100.00;98526.05;110479;1274;22323;-67
2023/01/31 05:35:05;;;;;;;21.10;14.90;;;;;;;-0.40;100.00;98533.13;110481;1274;22353;-66
2023/01/31 05:37:33;;;;;;;19.70;14.80;;;;;;;-0.37;100.00;98531.36;110496;1274;22236;-67
2023/01/31 05:40:02;;;;;;;21.20;15.20;;;;;;;-0.33;100.00;98533.91;110470;1274;22469;-67
2023/01/31 05:42:31;;;;;;;20.10;14.90;;;;;;;-0.30;100.00;98535.20;108080;1274;22669;-66
2023/01/31 05:44:59;;;;;;;22.40;16.00;;;;;;;-0.30;100.00;98536.80;107839;1274;23328;-66
2023/01/31 05:47:29;;;;;;;22.80;15.70;;;;;;;-0.30;100.00;98538.56;107772;1274;25336;-66
2023/01/31 05:49:57;;;;;;;22.50;15.80;;;;;;;-0.24;100.00;98541.63;107813;1273;24195;-66
2023/01/31 05:52:25;;;;;;;23.40;15.40;;;;;;;-0.19;100.00;98549.61;107662;1270;23375;-66
2023/01/31 05:54:54;;;;;;;22.80;15.10;;;;;;;-0.22;100.00;98548.08;107533;1274;25462;-67
2023/01/31 05:57:23;;;;;;;21.90;15.50;;;;;;;-0.27;100.00;98544.84;107510;1272;25353;-68
2023/01/31 05:59:52;;;;;;;21.70;15.60;;;;;;;-0.25;100.00;98551.48;107646;1272;26173;-68
2023/01/31 06:02:20;;;;;;;19.00;14.40;;;;;;;-0.19;100.00;98553.44;107731;1274;24920;-67
2023/01/31 06:04:52;;;;;;;23.20;15.70;;;;;;;-0.18;100.00;98552.84;107755;1267;25392;-69
2023/01/31 06:07:24;;;;;;;21.50;15.80;;;;;;;-0.25;100.00;98548.96;107743;1267;22642;-66
2023/01/31 06:09:54;;;;;;;22.40;16.10;;;;;;;-0.22;100.00;98558.25;107675;1274;25351;-66
2023/01/31 06:12:22;;;;;;;20.90;15.00;;;;;;;-0.16;100.00;98560.16;107762;1271;25300;-66
2023/01/31 06:14:50;;;;;;;20.20;15.00;;;;;;;-0.08;100.00;98563.94;107811;1272;22540;-66
2023/01/31 06:17:18;;;;;;;22.20;16.10;;;;;;;-0.06;100.00;98566.55;107852;1269;23234;-66
2023/01/31 06:19:47;;;;;;;22.30;16.30;;;;;;;-0.08;100.00;98562.11;107677;1274;23321;-66
2023/01/31 06:22:15;;;;;;;22.70;16.90;;;;;;;-0.08;100.00;98566.25;107676;1274;22956;-66
2023/01/31 06:24:43;;;;;;;21.80;15.20;;;;;;;-0.01;100.00;98561.37;107614;1272;22737;-68
2023/01/31 06:27:11;;;;;;;22.70;16.10;;;;;;;0.02;100.00;98565.14;109930;1269;23010;-68
2023/01/31 06:29:40;;;;;;;23.20;16.10;;;;;;;0.00;100.00;98566.11;110324;1274;22985;-68
2023/01/31 06:32:08;;;;;;;20.40;15.30;;;;;;;-0.06;100.00;98567.62;110455;1274;22241;-65
2023/01/31 06:34:36;;;;;;;22.60;15.30;;;;;;;-0.14;100.00;98569.04;110471;1273;22299;-65
2023/01/31 06:37:08;;;;;;;21.40;16.00;;;;;;;-0.20;100.00;98571.77;108480;1274;22541;-65
2023/01/31 06:39:36;;;;;;;21.80;16.40;;;;;;;-0.20;100.00;98577.23;107567;1274;25558;-65
2023/01/31 06:42:04;;;;;;;21.90;17.00;;;;;;;-0.15;100.00;98578.60;107576;1274;24220;-64
2023/01/31 06:44:33;;;;;;;24.20;17.00;;;;;;;-0.10;100.00;98581.06;107603;1274;22988;-65
2023/01/31 06:47:01;;;;;;;24.50;17.60;;;;;;;-0.08;100.00;98585.17;107796;1274;25348;-65
2023/01/31 06:49:30;;;;;;;27.50;18.00;;;;;;;-0.06;100.00;98590.20;107872;1275;25439;-65
2023/01/31 06:51:58;;;;;;;26.40;18.90;;;;;;;-0.02;100.00;98588.54;107829;1274;24057;-64
2023/01/31 06:54:26;;;;;;;29.30;18.70;;;;;;;0.00;100.00;98586.29;107760;1274;22947;-64
2023/01/31 06:56:55;;;;;;;28.70;20.00;;;;;;;-0.02;100.00;98587.02;107705;1274;25506;-64
2023/01/31 06:59:26;;;;;;;29.30;18.90;;;;;;;-0.07;100.00;98588.20;107530;1274;25240;-64
2023/01/31 07:01:54;;;;;;;33.20;21.40;;;;;;;-0.12;100.00;98590.81;107706;1269;25352;-66
2023/01/31 07:04:23;;;;;;;34.60;20.90;;;;;;;-0.14;100.00;98593.15;107650;1269;24397;-65
2023/01/31 07:06:51;;;;;;;32.40;21.70;;;;;;;-0.10;100.00;98596.25;107939;1273;25267;-64
2023/01/31 07:09:20;;;;;;;31.50;20.80;;;;;;;-0.03;100.00;98599.38;107808;1271;22560;-66
2023/01/31 07:11:48;;;;;;;30.40;21.20;;;;;;;0.03;100.00;98601.54;107789;1274;22685;-65
2023/01/31 07:14:19;;;;;;;30.90;21.20;;;;;;;0.00;100.00;98602.02;107699;1274;22641;-65
2023/01/31 07:16:47;;;;;;;32.00;21.30;;;;;;;-0.04;100.00;98601.48;107707;1274;22526;-66
2023/01/31 07:19:16;;;;;;;32.80;21.30;;;;;;;0.02;100.00;98606.77;107912;1269;25175;-66
2023/01/31 07:21:46;;;;;;;30.20;20.20;;;;;;;0.12;100.00;98610.22;107785;1274;22526;-66
2023/01/31 07:24:15;;;;;;;31.20;21.30;;;;;;;0.22;100.00;98610.67;107771;1274;22577;-68
2023/01/31 07:26:43;;;;;;;35.00;24.00;;;;;;;0.24;100.00;98610.55;107725;1271;22533;-68
2023/01/31 07:29:11;;;;;;;32.40;21.70;;;;;;;0.24;100.00;98609.75;110373;1274;22979;-69
2023/01/31 07:31:40;;;;;;;33.80;22.40;;;;;;;0.24;100.00;98610.13;110428;1273;22330;-69
2023/01/31 07:34:08;;;;;;;33.70;22.20;;;;;;;0.32;100.00;98609.98;110424;1274;22218;-70
2023/01/31 07:36:36;;;;;;;35.60;23.50;;;;;;;0.44;100.00;98606.55;110431;1274;22342;-70
2023/01/31 07:39:05;;;;;;;38.40;24.60;;;;;;;0.43;100.00;98612.81;110440;1274;22598;-72
2023/01/31 07:41:33;;;;;;;38.30;22.80;;;;;;;0.43;100.00;98612.81;108648;1269;22568;-71
2023/01/31 07:44:03;;;;;;;33.50;21.70;;;;;;;0.53;100.00;98617.23;107635;1272;22561;-68
2023/01/31 07:46:31;;;;;;;31.00;21.00;;;;;;;0.63;100.00;98621.54;107953;1272;22591;-69
2023/01/31 07:49:00;;;;;;;28.90;21.10;;;;;;;0.65;100.00;98624.70;110407;1274;22315;-68
2023/01/31 07:51:28;;;;;;;31.70;20.70;;;;;;;0.70;100.00;98630.96;110436;1274;22451;-69
2023/01/31 07:53:56;;;;;;;28.60;19.40;;;;;;;0.74;100.00;98633.02;110411;1274;22227;-68
2023/01/31 07:56:25;;;;;;;25.80;18.20;;;;;;;0.81;100.00;98629.77;110428;1273;23364;-68
2023/01/31 07:58:53;;;;;;;29.80;20.20;;;;;;;0.88;100.00;98630.45;110451;1274;23092;-68
2023/01/31 08:04:13;;;;;;;26.60;18.90;;;;;;;0.80;100.00;98639.50;110453;1274;22203;-68
2023/01/31 08:06:51;;;;;;;27.00;20.10;;;;;;;0.77;100.00;98643.72;108216;1274;25221;-69
2023/01/31 08:09:20;;;;;;;31.70;20.60;;;;;;;0.80;100.00;98649.23;107598;1274;22501;-68
2023/01/31 08:11:49;;;;;;;29.40;20.40;;;;;;;0.75;100.00;98657.45;107816;1274;26288;-68
2023/01/31 08:14:22;;;;;;;30.10;20.90;;;;;;;0.72;100.00;98654.95;107648;1275;226882;-67
2023/01/31 08:19:31;;;;;;;34.50;22.50;;;;;;;0.78;100.00;98652.02;104069;1311;547806;-67
2023/01/31 08:21:58;;;;;;;31.20;22.50;;;;;;;0.76;100.00;98659.11;106648;1283;22595;-66
2023/01/31 08:24:25;;;;;;;32.20;22.30;;;;;;;0.79;100.00;98658.34;106633;1289;22537;-67
2023/01/31 08:26:52;;;;;;;37.10;24.40;;;;;;;0.86;100.00;98659.46;106674;1289;26003;-67
2023/01/31 08:29:19;;;;;;;44.40;28.00;;;;;;;0.88;100.00;98662.23;106492;1283;22556;-67
2023/01/31 08:31:46;;;;;;;41.80;26.00;;;;;;;0.84;100.00;98662.88;106966;1280;137357;-67
2023/01/31 08:34:13;;;;;;;35.30;23.20;;;;;;;0.81;100.00;98664.92;110087;1278;22215;-67
2023/01/31 08:36:39;;;;;;;31.40;20.80;;;;;;;0.86;100.00;98668.98;110009;1280;22451;-67
2023/01/31 08:39:07;;;;;;;36.10;25.10;;;;;;;0.91;100.00;98667.02;110064;1274;22276;-67
2023/01/31 08:41:35;;;;;;;33.50;21.90;;;;;;;0.96;100.00;98669.37;110057;1279;22313;-67
2023/01/31 08:44:03;;;;;;;34.50;23.10;;;;;;;0.99;100.00;98671.15;110077;1279;22210;-67
2023/01/31 08:46:33;;;;;;;33.70;23.50;;;;;;;1.00;100.00;98672.62;110025;1280;23174;-67
2023/01/31 08:49:01;;;;;;;34.70;24.30;;;;;;;1.08;100.00;98669.45;110106;1279;22183;-67
2023/01/31 08:51:28;;;;;;;30.40;21.80;;;;;;;1.16;100.00;98674.00;110036;1279;22272;-67
2023/01/31 08:53:55;;;;;;;31.40;22.70;;;;;;;1.21;100.00;98677.29;110017;1280;22360;-68
2023/01/31 08:56:24;;;;;;;31.90;22.20;;;;;;;1.22;100.00;98674.25;110099;1279;22209;-68
2023/01/31 08:58:52;;;;;;;28.20;20.00;;;;;;;1.27;100.00;98672.95;110027;1279;23191;-68
2023/01/31 09:01:19;;;;;;;26.50;18.90;;;;;;;1.39;100.00;98673.23;110089;1279;23449;-68
2023/01/31 09:03:46;;;;;;;25.10;17.60;;;;;;;1.52;100.00;98670.11;110023;1279;22368;-68
2023/01/31 09:06:19;;;;;;;25.10;18.50;;;;;;;1.56;100.00;98672.45;109946;1279;22475;-70
2023/01/31 09:08:46;;;;;;;24.80;19.00;;;;;;;1.59;100.00;98676.84;109986;1279;22309;-69
2023/01/31 09:11:16;;;;;;;25.50;18.50;;;;;;;1.60;100.00;98674.69;110134;1273;22303;-69
2023/01/31 09:13:45;;;;;;;22.10;17.00;;;;;;;1.69;100.00;98671.19;110075;1279;22436;-68
2023/01/31 09:16:12;;;;;;;23.80;18.50;;;;;;;1.80;100.00;98670.48;110096;1279;22352;-69
2023/01/31 09:18:39;;;;;;;22.70;16.90;;;;;;;1.81;100.00;98670.23;109992;1279;22210;-69
2023/01/31 09:21:08;;;;;;;22.90;17.30;;;;;;;1.80;100.00;98680.42;110066;1279;22220;-68
2023/01/31 09:23:35;;;;;;;22.60;17.20;;;;;;;1.84;100.00;98674.91;110072;1275;22383;-68
2023/01/31 09:26:02;;;;;;;23.70;17.70;;;;;;;1.91;100.00;98677.17;110048;1275;22210;-68
2023/01/31 09:28:29;;;;;;;24.80;18.30;;;;;;;1.90;100.00;98678.56;109924;1279;22301;-68
2023/01/31 09:31:04;;;;;;;25.70;18.40;;;;;;;1.84;100.00;98678.98;109999;1274;24152;-67
2023/01/31 09:33:32;;;;;;;25.80;19.10;;;;;;;1.81;100.00;98676.41;109981;1273;22408;-68
2023/01/31 09:36:04;;;;;;;25.80;18.50;;;;;;;1.93;100.00;98680.87;110012;1279;22393;-68
2023/01/31 09:38:31;;;;;;;23.90;17.70;;;;;;;2.01;100.00;98685.19;110011;1275;22240;-68
2023/01/31 09:41:00;;;;;;;26.10;19.50;;;;;;;1.98;100.00;98685.41;110034;1280;22355;-69
2023/01/31 09:43:38;;;;;;;25.10;18.90;;;;;;;2.03;100.00;98686.52;109960;1273;22194;-68
2023/01/31 09:46:06;;;;;;;28.40;20.20;;;;;;;2.04;100.00;98687.39;109979;1276;22980;-68
2023/01/31 09:48:34;;;;;;;23.70;18.40;;;;;;;2.10;100.00;98684.98;109962;1277;23040;-68
2023/01/31 09:51:02;;;;;;;26.10;19.70;;;;;;;2.16;100.00;98689.42;109943;1273;22526;-68
2023/01/31 13:56:37;;;;;;;42.90;27.60;;;;;;;0.85;100.00;98701.48;103533;1313;545406;-65
2023/01/31 13:59:08;;;;;;;41.00;28.40;;;;;;;0.99;100.00;98704.59;109468;1289;22330;-65
2023/01/31 14:01:45;;;;;;;39.00;25.60;;;;;;;1.18;100.00;98706.21;109421;1289;22173;-66
2023/01/31 14:04:14;;;;;;;31.90;22.60;;;;;;;1.30;100.00;98708.40;109362;1289;22749;-66
2023/01/31 14:06:52;;;;;;;29.60;21.10;;;;;;;1.41;100.00;98711.96;109521;1289;22206;-66
2023/01/31 14:09:41;;;;;;;30.80;20.40;;;;;;;1.52;100.00;98712.83;109339;1287;258944;-66
2023/01/31 14:12:09;;;;;;;27.00;19.00;;;;;;;1.63;100.00;98717.92;109526;1287;22443;-65
2023/01/31 14:14:53;;;;;;;26.70;19.50;;;;;;;1.64;100.00;98717.35;109675;1287;22240;-66
2023/01/31 14:17:28;;;;;;;30.30;19.80;;;;;;;1.67;100.00;98721.91;109603;1287;22418;-66
2023/01/31 14:19:56;;;;;;;31.10;20.90;;;;;;;1.74;100.00;98716.52;107197;1287;22553;-66
2023/01/31 14:22:30;;;;;;;33.00;22.40;;;;;;;1.81;100.00;98719.13;106780;1287;25426;-65
2023/01/31 14:25:39;;;;;;;33.10;22.80;;;;;;;1.85;100.00;98724.20;106862;1286;24353;-65
2023/01/31 14:28:09;;;;;;;34.80;23.30;;;;;;;1.79;100.00;98722.31;106890;1286;23305;-65
2023/01/31 14:30:46;;;;;;;29.10;21.20;;;;;;;1.75;100.00;98725.83;106745;1287;22631;-65
2023/01/31 14:33:17;;;;;;;36.40;24.70;;;;;;;1.80;100.00;98723.45;107133;1287;22546;-65
2023/01/31 14:36:24;;;;;;;38.00;24.40;;;;;;;1.82;100.00;98729.34;106978;1286;22657;-65
2023/01/31 14:39:25;;;;;;;35.30;24.70;;;;;;;1.78;100.00;98727.02;106653;1285;25425;-65
2023/01/31 14:41:58;;;;;;;35.60;23.80;;;;;;;1.69;100.00;98725.63;106713;1287;24377;-65
2023/01/31 14:44:48;;;;;;;35.50;23.80;;;;;;;1.62;100.00;98728.21;106727;1286;22596;-65
2023/01/31 14:47:34;;;;;;;30.20;20.80;;;;;;;1.63;100.00;98730.79;109664;1287;22233;-66
2023/01/31 14:50:20;;;;;;;26.10;19.60;;;;;;;1.66;100.00;98734.77;109669;1287;22379;-66
2023/01/31 14:53:21;;;;;;;25.90;18.20;;;;;;;1.70;100.00;98737.65;110049;1280;22338;-66
2023/01/31 14:56:14;;;;;;;26.80;18.90;;;;;;;1.74;100.00;98737.23;109999;1277;22206;-66
2023/01/31 14:58:43;;;;;;;23.50;17.90;;;;;;;1.76;100.00;98738.71;110053;1280;22567;-66
2023/01/31 15:01:16;;;;;;;21.20;15.60;;;;;;;1.79;100.00;98742.54;109951;1280;22312;-66
2023/01/31 15:03:57;;;;;;;19.20;14.50;;;;;;;1.81;100.00;98744.77;109942;1280;22244;-66
2023/01/31 15:06:34;;;;;;;18.90;14.60;;;;;;;1.81;100.00;98747.46;109928;1280;22356;-66
2023/01/31 15:09:14;;;;;;;20.40;15.30;;;;;;;1.78;100.00;98748.75;108803;1280;25265;-65
2023/01/31 15:12:33;;;;;;;21.80;16.10;;;;;;;1.71;100.00;98747.26;107135;1280;24446;-65
2023/01/31 15:15:04;;;;;;;23.70;15.90;;;;;;;1.60;100.00;98752.84;106899;1280;22551;-65
2023/01/31 15:17:35;;;;;;;20.70;15.00;;;;;;;1.59;100.00;98757.55;107143;1280;25388;-65
2023/01/31 15:20:31;;;;;;;22.50;14.90;;;;;;;1.59;100.00;98759.42;106439;1281;25288;-65
2023/01/31 15:23:03;;;;;;;23.30;16.30;;;;;;;1.60;100.00;98763.73;107238;1280;25351;-65
2023/01/31 15:25:33;;;;;;;21.30;15.80;;;;;;;1.55;100.00;98767.86;107195;1280;22532;-65
2023/01/31 15:28:02;;;;;;;26.50;17.80;;;;;;;1.50;100.00;98768.27;106977;1280;22556;-65
2023/01/31 15:30:32;;;;;;;27.00;18.50;;;;;;;1.52;100.00;98771.72;107173;1280;23301;-65
2023/01/31 15:33:16;;;;;;;19.60;14.20;;;;;;;1.52;100.00;98774.09;108449;1280;22578;-65
2023/01/31 15:35:51;;;;;;;22.90;15.50;;;;;;;1.54;100.00;98774.88;107261;1281;25340;-65